Time;durP1;ratioP1;P1;durP2;ratioP2;P2;SDS_P1;SDS_P2;PMS_P1;PMS_P2;Temp;Humidity;BMP_temperature;BMP_pressure;BME280_temperature;BME280_humidity;BME280_pressure;Samples;Min_cycle;Max_cycle;Signal;HPM_P1;HPM_P2
2022/02/06 00:01:18;;;;;;;;;;;;;;;21.71;24.84;96144.25;10410799;28;1851;-59
2022/02/06 00:06:19;;;;;;;;;;;;;;;21.69;24.87;96138.47;10417532;28;2174;-59
2022/02/06 00:11:20;;;;;;;;;;;;;;;21.69;25.29;96127.91;10427221;28;1871;-58
2022/02/06 00:16:22;;;;;;;;;;;;;;;21.66;24.78;96121.31;10429634;28;2356;-59
2022/02/06 00:21:23;;;;;;;;;;;;;;;21.66;24.83;96104.69;10429023;28;1888;-59
2022/02/06 00:31:36;;;;;;;;;;;;;;;21.64;24.53;96098.91;10405152;28;2154;-59
2022/02/06 00:41:57;;;;;;;;;;;;;;;21.61;24.55;96089.69;10432784;28;2163;-59
2022/02/06 00:47:02;;;;;;;;;;;;;;;21.63;24.42;96073.59;10410354;28;1871;-59
2022/02/06 00:52:11;;;;;;;;;;;;;;;21.60;24.25;96076.75;10426989;28;1831;-58
2022/02/06 00:57:12;;;;;;;;;;;;;;;21.59;24.42;96073.34;10430479;28;1977;-58
2022/02/06 01:02:12;;;;;;;;;;;;;;;21.58;24.40;96065.69;10424197;28;1825;-59
2022/02/06 01:07:12;;;;;;;;;;;;;;;21.58;24.47;96073.59;10432266;28;1819;-58
2022/02/06 01:12:18;;;;;;;;;;;;;;;21.59;24.41;96064.66;10430305;28;1825;-59
2022/02/06 01:17:26;;;;;;;;;;;;;;;21.58;24.25;96065.69;10414229;28;1910;-59
2022/02/06 01:22:30;;;;;;;;;;;;;;;21.58;24.76;96065.69;10431039;28;1818;-58
2022/02/06 01:27:39;;;;;;;;;;;;;;;21.56;24.35;96065.19;10429499;28;1719;-59
2022/02/06 01:32:50;;;;;;;;;;;;;;;21.55;24.57;96063.63;10432322;28;2203;-57
2022/02/06 01:38:58;;;;;;;;;;;;;;;21.56;24.62;96058.06;10429783;28;1975;-59
2022/02/06 01:43:17;;;;;;;;;;;;;;;21.56;24.29;96049.34;10412545;28;1805;-59
2022/02/06 02:30:40;;;;;;;;;;;;;;;21.52;24.29;96011.38;10419880;28;1882;-59
2022/02/06 02:46:26;;;;;;;;;;;;;;;21.51;24.15;95996.66;10435900;28;1921;-58
2022/02/06 02:51:32;;;;;;;;;;;;;;;21.50;24.45;95979.22;10414793;28;2010;-57
2022/02/06 02:56:45;;;;;;;;;;;;;;;21.49;24.39;95977.66;10434764;28;1921;-58
2022/02/06 03:01:56;;;;;;;;;;;;;;;21.49;24.29;95969.75;10434110;28;1973;-59
2022/02/06 03:06:58;;;;;;;;;;;;;;;21.49;24.28;95982.94;10414476;28;2017;-57
2022/02/06 03:11:58;;;;;;;;;;;;;;;21.48;24.37;95968.97;10438669;28;1970;-58
2022/02/06 03:17:04;;;;;;;;;;;;;;;21.49;24.37;95967.13;10425040;28;2052;-59
2022/02/06 03:22:04;;;;;;;;;;;;;;;21.50;24.18;95969.47;10435514;28;2171;-58
2022/02/06 03:27:05;;;;;;;;;;;;;;;21.50;24.16;95968.69;10428699;28;1886;-61
2022/02/06 03:32:05;;;;;;;;;;;;;;;21.49;24.12;95956.56;10417102;28;1958;-60
2022/02/06 03:37:06;;;;;;;;;;;;;;;21.49;24.36;95956.56;10402891;28;1971;-57
2022/02/06 03:42:11;;;;;;;;;;;;;;;21.47;24.49;95946.28;10434962;28;1988;-59
2022/02/06 03:47:20;;;;;;;;;;;;;;;21.47;23.88;95943.66;10433415;28;2099;-59
2022/02/06 03:52:25;;;;;;;;;;;;;;;21.45;24.00;95942.34;10416331;28;2027;-59
2022/02/06 03:57:26;;;;;;;;;;;;;;;21.46;24.16;95930.72;10422575;28;1914;-57
2022/02/06 04:02:26;;;;;;;;;;;;;;;21.46;23.88;95936.78;10412653;28;3301;-59
2022/02/06 04:07:26;;;;;;;;;;;;;;;21.45;24.16;95934.44;10426590;28;1984;-58
2022/02/06 04:12:29;;;;;;;;;;;;;;;21.45;24.05;95926.53;10418944;28;2255;-60
2022/02/06 04:17:30;;;;;;;;;;;;;;;21.45;23.82;95918.63;10424096;28;2006;-58
2022/02/06 04:22:31;;;;;;;;;;;;;;;21.43;23.70;95910.97;10431237;28;1984;-59
2022/02/06 04:27:31;;;;;;;;;;;;;;;21.44;24.17;95898.56;10436600;28;1908;-55
2022/02/06 04:32:33;;;;;;;;;;;;;;;21.43;24.07;95894.38;10435386;28;1918;-58
2022/02/06 04:37:42;;;;;;;;;;;;;;;21.42;23.76;95883.03;10424307;28;1998;-56
2022/02/06 05:34:24;;;;;;;;;;;;;;;21.37;23.90;95800.53;10409336;28;1949;-59
2022/02/06 05:39:26;;;;;;;;;;;;;;;21.37;23.77;95808.44;10416219;28;1981;-60
2022/02/06 05:44:26;;;;;;;;;;;;;;;21.36;23.65;95820.03;10433708;28;1968;-60
2022/02/06 05:49:27;;;;;;;;;;;;;;;21.35;23.77;95818.50;10410107;28;2188;-59
2022/02/06 05:54:28;;;;;;;;;;;;;;;21.36;23.89;95806.88;10421131;28;1942;-59
2022/02/06 05:59:28;;;;;;;;;;;;;;;21.36;23.74;95809.50;10406746;28;1969;-60
2022/02/06 06:04:29;;;;;;;;;;;;;;;21.35;23.73;95813.22;10427453;28;1918;-60
2022/02/06 06:09:29;;;;;;;;;;;;;;;21.34;23.80;95803.72;10424885;28;1909;-60
2022/02/06 06:14:30;;;;;;;;;;;;;;;21.35;24.28;95810.59;10415941;28;2008;-59
2022/02/06 06:19:33;;;;;;;;;;;;;;;21.32;23.89;95811.91;10431443;28;1996;-60
2022/02/06 06:24:44;;;;;;;;;;;;;;;21.32;23.78;95813.75;10417980;28;1992;-60
2022/02/06 06:29:45;;;;;;;;;;;;;;;21.32;23.87;95808.47;10435229;28;1957;-60
2022/02/06 06:34:45;;;;;;;;;;;;;;;21.32;23.45;95819.03;10438576;28;1828;-60
2022/02/06 06:39:48;;;;;;;;;;;;;;;21.31;23.96;95812.97;10438320;28;1938;-60
2022/02/06 06:44:49;;;;;;;;;;;;;;;21.31;23.48;95806.94;10439602;28;1878;-57
2022/02/06 06:49:49;;;;;;;;;;;;;;;21.29;23.59;95809.06;10415579;28;2068;-59
2022/02/06 06:54:58;;;;;;;;;;;;;;;21.28;23.72;95805.63;10439477;28;1983;-58
2022/02/06 07:05:05;;;;;;;;;;;;;;;21.28;23.90;95808.25;10422843;28;1868;-58
2022/02/06 07:10:06;;;;;;;;;;;;;;;21.28;23.73;95796.91;10435853;28;1838;-58
2022/02/06 07:15:07;;;;;;;;;;;;;;;21.28;23.80;95802.19;10427702;28;1790;-58
2022/02/06 07:20:07;;;;;;;;;;;;;;;21.28;23.67;95804.81;10424403;28;1918;-59
2022/02/06 07:25:08;;;;;;;;;;;;;;;21.28;23.89;95791.66;10425937;28;1902;-59
2022/02/06 07:30:08;;;;;;;;;;;;;;;21.27;23.71;95784.81;10443037;28;1810;-60
2022/02/06 07:35:09;;;;;;;;;;;;;;;21.28;23.65;95765.28;10422818;28;1848;-58
2022/02/06 07:40:11;;;;;;;;;;;;;;;21.28;23.93;95762.63;10434827;28;1913;-58
2022/02/06 07:45:13;;;;;;;;;;;;;;;21.28;23.83;95760.78;10433179;28;1815;-58
2022/02/06 07:50:14;;;;;;;;;;;;;;;21.27;23.37;95748.66;10429626;28;1802;-58
2022/02/06 07:55:14;;;;;;;;;;;;;;;21.27;23.95;95738.13;10413627;28;2088;-57
2022/02/06 08:00:15;;;;;;;;;;;;;;;21.25;23.71;95731.53;10417790;28;1954;-60
2022/02/06 08:05:17;;;;;;;;;;;;;;;21.26;23.71;95743.69;10412457;28;1988;-57
2022/02/06 08:10:19;;;;;;;;;;;;;;;21.27;23.75;95758.44;10416912;28;1864;-58
2022/02/06 08:15:21;;;;;;;;;;;;;;;21.28;23.61;95755.53;10440437;28;1953;-57
2022/02/06 08:20:22;;;;;;;;;;;;;;;21.31;23.75;95739.13;10426400;28;1895;-58
2022/02/06 08:25:24;;;;;;;;;;;;;;;21.32;23.74;95730.19;10429552;28;1793;-58
2022/02/06 08:30:24;;;;;;;;;;;;;;;21.33;23.64;95738.88;10432444;28;1895;-58
2022/02/06 08:35:25;;;;;;;;;;;;;;;21.35;24.25;95724.34;10436288;28;1853;-58
2022/02/06 08:40:25;;;;;;;;;;;;;;;21.37;23.97;95710.88;10432086;28;1968;-57
2022/02/06 08:45:28;;;;;;;;;;;;;;;21.37;23.59;95702.97;10431664;28;1898;-59
2022/02/06 08:50:28;;;;;;;;;;;;;;;21.35;23.59;95694.56;10414077;28;1914;-59
2022/02/06 08:55:29;;;;;;;;;;;;;;;21.35;23.80;95690.06;10414863;28;1829;-56
2022/02/06 09:00:29;;;;;;;;;;;;;;;21.36;24.28;95659.22;10428503;28;1903;-56
2022/02/06 09:05:30;;;;;;;;;;;;;;;21.39;24.13;95642.84;10434183;28;1801;-58
2022/02/06 09:10:31;;;;;;;;;;;;;;;21.40;23.87;95621.47;10439704;28;1849;-57
2022/02/06 09:15:31;;;;;;;;;;;;;;;21.37;23.87;95615.97;10440522;28;1903;-58
2022/02/06 09:20:32;;;;;;;;;;;;;;;21.37;24.58;95611.47;10433159;28;1962;-57
2022/02/06 09:25:32;;;;;;;;;;;;;;;21.41;24.59;95627.53;10438045;28;1836;-58
2022/02/06 09:30:33;;;;;;;;;;;;;;;21.39;24.82;95611.97;10434624;28;1849;-55
2022/02/06 09:35:33;;;;;;;;;;;;;;;21.42;24.75;95616.69;10435134;28;1778;-59
2022/02/06 09:40:37;;;;;;;;;;;;;;;21.43;24.83;95620.88;10411793;28;1972;-59
2022/02/06 09:45:40;;;;;;;;;;;;;;;21.41;25.01;95606.44;10408378;28;1855;-58
2022/02/06 09:50:43;;;;;;;;;;;;;;;21.40;25.08;95610.91;10430290;28;1833;-57
2022/02/06 09:55:46;;;;;;;;;;;;;;;21.39;24.59;95609.31;10431325;28;1971;-56
2022/02/06 10:00:47;;;;;;;;;;;;;;;21.42;25.08;95618.53;10386804;28;1870;-57
2022/02/06 10:05:49;;;;;;;;;;;;;;;21.45;24.78;95604.78;10421964;28;1849;-53
2022/02/06 10:10:55;;;;;;;;;;;;;;;21.46;24.73;95593.16;10411700;28;1906;-58
2022/02/06 10:15:56;;;;;;;;;;;;;;;21.48;24.68;95588.38;10385446;28;2189;-57
2022/02/06 10:20:56;;;;;;;;;;;;;;;21.50;24.80;95586.25;10410609;28;2013;-57
2022/02/06 10:26:09;;;;;;;;;;;;;;;21.52;24.50;95574.34;10416755;28;2306;-58
2022/02/06 10:31:09;;;;;;;;;;;;;;;21.55;24.29;95565.91;10424262;28;1959;-59
2022/02/06 10:36:10;;;;;;;;;;;;;;;21.63;25.35;95559.97;10409931;28;1969;-58
2022/02/06 10:41:11;;;;;;;;;;;;;;;21.66;25.10;95540.94;10424334;28;1688;-59
2022/02/06 10:46:12;;;;;;;;;;;;;;;21.66;24.67;95540.13;10429189;28;1825;-60
2022/02/06 10:51:36;;;;;;;;;;;;;;;21.61;24.45;95534.94;10430864;28;1868;-60
2022/02/06 10:56:40;;;;;;;;;;;;;;;21.58;24.45;95507.28;10412881;28;1975;-60
2022/02/06 11:01:41;;;;;;;;;;;;;;;21.61;25.37;95501.47;10430438;28;1854;-60
2022/02/06 11:06:44;;;;;;;;;;;;;;;21.69;24.87;95500.00;10455072;22;1846;-47
2022/02/06 11:11:44;;;;;;;;;;;;;;;21.68;25.15;95464.13;10465451;28;1818;-47
2022/02/06 11:16:46;;;;;;;;;;;;;;;21.66;25.13;95456.53;10465616;28;1971;-47
2022/02/06 11:21:47;;;;;;;;;;;;;;;21.69;25.09;95432.22;10445746;28;3173;-50
2022/02/06 11:26:47;;;;;;;;;;;;;;;21.51;23.90;95405.88;10448775;28;1762;-46
2022/02/06 11:31:49;;;;;;;;;;;;;;;21.29;23.61;95397.78;10462155;28;1733;-46
2022/02/06 11:47:32;;;;;;;;;;;;;;;21.31;24.24;95371.91;10472096;28;1990;-46
2022/02/06 11:52:52;;;;;;;;;;;;;;;21.36;24.74;95353.34;10452294;28;2171;-47
2022/02/06 11:58:13;;;;;;;;;;;;;;;21.36;24.04;95346.25;10467336;28;2194;-48
2022/02/06 12:03:13;;;;;;;;;;;;;;;21.36;24.33;95351.50;10455274;28;2190;-48
2022/02/06 12:08:14;;;;;;;;;;;;;;;21.36;24.44;95348.88;10470187;28;1789;-47
2022/02/06 12:13:18;;;;;;;;;;;;;;;21.34;24.30;95329.13;10455766;28;1816;-46
2022/02/06 12:18:28;;;;;;;;;;;;;;;21.33;24.20;95307.25;10452631;28;1965;-46
2022/02/06 12:23:38;;;;;;;;;;;;;;;21.33;23.95;95303.84;10471595;28;1921;-47
2022/02/06 12:28:41;;;;;;;;;;;;;;;21.33;24.47;95301.97;10450273;28;2228;-48
2022/02/06 12:33:50;;;;;;;;;;;;;;;21.34;24.38;95300.13;10453834;28;2050;-47
2022/02/06 12:38:51;;;;;;;;;;;;;;;21.33;24.03;95288.81;10475349;28;2114;-45
2022/02/06 12:43:54;;;;;;;;;;;;;;;21.34;24.20;95284.31;10472645;28;1830;-48
2022/02/06 12:49:02;;;;;;;;;;;;;;;21.33;24.61;95265.06;10453467;28;1869;-49
2022/02/06 12:54:02;;;;;;;;;;;;;;;21.32;24.25;95244.28;10470914;28;1884;-50
2022/02/06 12:59:03;;;;;;;;;;;;;;;21.31;24.34;95238.22;10471175;28;1914;-49
2022/02/06 13:04:04;;;;;;;;;;;;;;;21.32;24.51;95237.16;10452613;28;1894;-50
2022/02/06 13:09:09;;;;;;;;;;;;;;;21.32;24.72;95217.91;10451891;28;1817;-45
2022/02/06 13:14:27;;;;;;;;;;;;;;;21.31;24.86;95195.28;10451130;28;1769;-49
2022/02/06 13:24:48;;;;;;;;;;;;;;;21.39;24.91;95181.41;10470518;28;1830;-45
2022/02/06 13:29:57;;;;;;;;;;;;;;;21.39;24.69;95168.22;10453071;28;1886;-44
2022/02/06 13:35:27;;;;;;;;;;;;;;;21.36;25.10;95159.03;10448871;28;1731;-42
2022/02/06 13:40:32;;;;;;;;;;;;;;;21.37;25.54;95149.28;10451176;28;2032;-42
2022/02/06 13:45:33;;;;;;;;;;;;;;;21.35;25.05;95143.53;10466199;28;1806;-44
2022/02/06 13:50:40;;;;;;;;;;;;;;;21.33;25.08;95135.13;10447276;28;1929;-43
2022/02/06 13:55:45;;;;;;;;;;;;;;;21.31;25.32;95156.50;10466245;28;1935;-43
2022/02/06 14:01:06;;;;;;;;;;;;;;;21.30;25.52;95148.88;10453510;28;1935;-43
2022/02/06 14:06:07;;;;;;;;;;;;;;;21.29;25.25;95123.63;10448795;28;1841;-42
2022/02/06 14:11:14;;;;;;;;;;;;;;;21.27;25.43;95128.41;10451341;28;1952;-42
2022/02/06 14:16:14;;;;;;;;;;;;;;;21.25;24.98;95089.13;10457251;28;1898;-45
2022/02/06 14:21:20;;;;;;;;;;;;;;;21.24;25.06;95063.06;10462908;28;1399;-42
2022/02/06 14:26:20;;;;;;;;;;;;;;;21.24;24.96;95060.44;10478454;28;1467;-45
2022/02/06 14:31:27;;;;;;;;;;;;;;;21.21;25.08;95053.09;10470069;28;1378;-42
2022/02/06 14:36:28;;;;;;;;;;;;;;;21.23;24.97;95035.13;10456942;28;1977;-45
2022/02/06 14:41:46;;;;;;;;;;;;;;;21.24;25.10;95047.25;10444938;28;1759;-44
2022/02/06 14:46:47;;;;;;;;;;;;;;;21.24;25.29;95036.72;10462982;28;1781;-43
2022/02/06 14:51:47;;;;;;;;;;;;;;;21.21;25.36;95026.75;10457109;28;2158;-46
2022/02/06 14:56:48;;;;;;;;;;;;;;;21.18;24.87;95025.50;10458842;28;1976;-44
2022/02/06 15:01:51;;;;;;;;;;;;;;;21.16;24.95;95014.47;10463666;28;1854;-44
2022/02/06 15:06:52;;;;;;;;;;;;;;;21.15;24.74;95007.63;10474696;28;1801;-47
2022/02/06 15:11:53;;;;;;;;;;;;;;;21.15;24.81;94997.09;10457645;28;1996;-45
2022/02/06 15:16:58;;;;;;;;;;;;;;;21.15;24.84;94985.75;10472328;28;2671;-44
2022/02/06 15:21:58;;;;;;;;;;;;;;;21.16;25.10;94967.03;10448769;28;1802;-46
2022/02/06 15:26:59;;;;;;;;;;;;;;;21.15;25.11;94969.94;10454625;28;1905;-42
2022/02/06 15:32:00;;;;;;;;;;;;;;;21.18;25.11;94972.00;10455067;28;1814;-44
2022/02/06 15:37:02;;;;;;;;;;;;;;;21.17;25.29;94962.53;10474545;28;1969;-43
2022/02/06 15:42:04;;;;;;;;;;;;;;;21.14;25.06;94963.91;10474955;28;1765;-45
2022/02/06 15:47:04;;;;;;;;;;;;;;;21.12;25.08;94962.66;10456235;28;1810;-45
2022/02/06 15:52:05;;;;;;;;;;;;;;;21.10;25.01;94935.81;10730499;22;3599;-56
2022/02/06 15:57:08;;;;;;;;;;;;;;;21.08;24.88;94922.16;10508423;28;1918;-54
2022/02/06 16:02:08;;;;;;;;;;;;;;;21.05;25.12;94919.03;10509299;28;1816;-55
2022/02/06 16:07:10;;;;;;;;;;;;;;;21.03;25.13;94926.44;10507201;28;1513;-55
2022/02/06 16:12:10;;;;;;;;;;;;;;;21.04;25.13;94911.44;10511758;28;1870;-56
2022/02/06 16:17:11;;;;;;;;;;;;;;;21.03;24.98;94915.91;10509928;28;1964;-54
2022/02/06 16:22:11;;;;;;;;;;;;;;;21.04;25.04;94922.72;10509454;28;1802;-57
2022/02/06 16:27:12;;;;;;;;;;;;;;;21.02;24.92;94887.19;10511768;28;1996;-55
2022/02/06 16:32:17;;;;;;;;;;;;;;;20.99;24.94;94878.03;10508066;28;1850;-56
2022/02/06 16:37:17;;;;;;;;;;;;;;;20.97;24.73;94867.00;10511042;28;1929;-55
2022/02/06 16:42:19;;;;;;;;;;;;;;;20.98;24.67;94844.06;10511884;28;1875;-57
2022/02/06 16:47:19;;;;;;;;;;;;;;;20.96;24.53;94873.34;10504514;28;2166;-57
2022/02/06 16:52:19;;;;;;;;;;;;;;;20.94;24.77;94838.59;10505597;28;1860;-55
2022/02/06 16:57:20;;;;;;;;;;;;;;;20.93;24.57;94826.53;10504666;28;2033;-57
2022/02/06 17:02:21;;;;;;;;;;;;;;;20.91;24.62;94831.31;10507384;28;1871;-56
2022/02/06 17:07:22;;;;;;;;;;;;;;;20.92;24.68;94842.59;10511656;28;1803;-57
2022/02/06 17:12:22;;;;;;;;;;;;;;;20.91;24.84;94804.97;10510010;28;1981;-55
2022/02/06 17:17:25;;;;;;;;;;;;;;;20.92;24.63;94803.88;10509363;28;2009;-57
2022/02/06 17:22:26;;;;;;;;;;;;;;;20.91;24.86;94783.91;10506519;28;1871;-58
2022/02/06 17:27:28;;;;;;;;;;;;;;;20.93;24.98;94815.19;10510326;28;2036;-55
2022/02/06 17:32:28;;;;;;;;;;;;;;;20.92;24.98;94788.06;10507822;28;1892;-57
2022/02/06 17:37:29;;;;;;;;;;;;;;;20.93;24.74;94780.97;10505016;28;1961;-55
2022/02/06 17:42:29;;;;;;;;;;;;;;;20.92;25.09;94780.16;10507196;28;1998;-56
2022/02/06 17:47:29;;;;;;;;;;;;;;;20.90;24.64;94779.69;10506650;28;1848;-54
2022/02/06 17:52:30;;;;;;;;;;;;;;;20.90;24.79;94778.91;10511362;28;1993;-57
2022/02/06 17:57:30;;;;;;;;;;;;;;;20.89;25.03;94783.41;10515929;28;1909;-55
2022/02/06 18:02:31;;;;;;;;;;;;;;;20.89;25.05;94754.44;10518352;28;1803;-58
2022/02/06 18:07:31;;;;;;;;;;;;;;;20.87;24.88;94758.44;10516106;28;1800;-57
2022/02/06 18:12:32;;;;;;;;;;;;;;;20.86;24.81;94731.31;10520022;28;1895;-53
2022/02/06 18:17:33;;;;;;;;;;;;;;;20.85;25.01;94723.72;10517843;28;1960;-56
2022/02/06 18:22:33;;;;;;;;;;;;;;;20.83;25.08;94700.31;10511324;28;1971;-55
2022/02/06 18:27:34;;;;;;;;;;;;;;;20.85;25.04;94698.16;10515257;28;1836;-57
2022/02/06 18:32:35;;;;;;;;;;;;;;;20.83;25.24;94712.72;10515421;28;1871;-57
2022/02/06 18:37:37;;;;;;;;;;;;;;;20.83;25.01;94686.38;10513680;28;1955;-54
2022/02/06 18:42:37;;;;;;;;;;;;;;;20.83;25.22;94689.78;10516411;28;1835;-56
2022/02/06 18:47:38;;;;;;;;;;;;;;;20.81;25.21;94675.34;10518365;28;1757;-56
2022/02/06 18:52:39;;;;;;;;;;;;;;;20.80;25.15;94671.94;10513281;28;1824;-56
2022/02/06 18:57:42;;;;;;;;;;;;;;;20.80;25.31;94642.97;10522765;22;2305;-43
2022/02/06 19:02:42;;;;;;;;;;;;;;;20.79;25.04;94649.28;10479097;28;1904;-43
2022/02/06 19:07:43;;;;;;;;;;;;;;;20.77;25.13;94640.16;10477949;28;1847;-41
2022/02/06 19:12:43;;;;;;;;;;;;;;;20.80;25.56;94629.78;10461694;28;1862;-42
2022/02/06 19:17:43;;;;;;;;;;;;;;;20.81;25.36;94605.00;10435959;28;1977;-44
2022/02/06 19:22:44;;;;;;;;;;;;;;;20.81;25.35;94598.97;10440388;28;1817;-46
2022/02/06 19:27:50;;;;;;;;;;;;;;;20.81;25.48;94570.75;10461943;28;1900;-47
2022/02/06 19:32:51;;;;;;;;;;;;;;;20.80;25.24;94560.53;10440945;28;1920;-45
2022/02/06 19:37:51;;;;;;;;;;;;;;;20.80;25.32;94560.53;10455153;28;1913;-44
2022/02/06 19:42:55;;;;;;;;;;;;;;;20.79;25.32;94541.31;10460660;28;1889;-43
2022/02/06 19:47:55;;;;;;;;;;;;;;;20.82;25.67;94534.66;10443210;28;1795;-44
2022/02/06 19:52:56;;;;;;;;;;;;;;;20.86;25.63;94541.66;10439348;28;1972;-40
2022/02/06 19:57:56;;;;;;;;;;;;;;;20.88;25.78;94504.47;10459656;28;1901;-44
2022/02/06 20:02:56;;;;;;;;;;;;;;;20.88;26.00;94486.81;10442623;28;1645;-43
2022/02/06 20:07:57;;;;;;;;;;;;;;;20.93;25.91;94478.00;10454692;28;1461;-43
2022/02/06 20:12:58;;;;;;;;;;;;;;;20.93;25.83;94493.81;10462981;28;1883;-42
2022/02/06 20:17:58;;;;;;;;;;;;;;;20.96;25.85;94482.66;10446532;28;1927;-44
2022/02/06 20:23:00;;;;;;;;;;;;;;;20.94;25.21;94471.66;10430015;28;1417;-42
2022/02/06 20:28:00;;;;;;;;;;;;;;;20.95;25.75;94438.97;10457533;28;1466;-44
2022/02/06 20:33:03;;;;;;;;;;;;;;;20.95;25.85;94433.69;10454722;28;1327;-44
2022/02/06 20:38:04;;;;;;;;;;;;;;;20.93;25.67;94423.47;10442577;28;1922;-43
2022/02/06 20:43:04;;;;;;;;;;;;;;;20.92;25.62;94405.31;10438784;28;1442;-43
2022/02/06 20:48:05;;;;;;;;;;;;;;;20.94;25.81;94411.84;10445227;28;1388;-41
2022/02/06 20:53:05;;;;;;;;;;;;;;;20.94;25.74;94385.50;10453279;28;1929;-41
2022/02/06 20:58:05;;;;;;;;;;;;;;;20.92;25.65;94382.41;10442192;28;1983;-43
2022/02/06 21:03:06;;;;;;;;;;;;;;;20.91;25.42;94337.94;10440015;28;1708;-42
2022/02/06 21:08:06;;;;;;;;;;;;;;;20.91;25.55;94369.56;10437903;28;1347;-48
2022/02/06 21:13:06;;;;;;;;;;;;;;;20.94;25.56;94371.56;10462401;28;1517;-43
2022/02/06 21:18:07;;;;;;;;;;;;;;;20.96;25.86;94340.41;10438418;28;1910;-42
2022/02/06 21:23:07;;;;;;;;;;;;;;;20.98;25.85;94348.78;10434178;28;1445;-45
2022/02/06 21:28:08;;;;;;;;;;;;;;;21.00;26.53;94336.84;10430805;28;1800;-43
2022/02/06 21:33:10;;;;;;;;;;;;;;;20.97;25.28;94342.75;10433281;28;1860;-43
2022/02/06 21:38:11;;;;;;;;;;;;;;;20.92;25.21;94307.88;10454710;28;2353;-41
2022/02/06 21:43:11;;;;;;;;;;;;;;;20.90;24.99;94324.00;10460701;28;1859;-42
2022/02/06 21:48:13;;;;;;;;;;;;;;;20.87;24.74;94293.03;10459204;28;1837;-43
2022/02/06 21:53:13;;;;;;;;;;;;;;;20.87;24.98;94271.94;10436726;28;1930;-43
2022/02/06 21:58:13;;;;;;;;;;;;;;;20.87;24.81;94295.66;10459893;28;1910;-46
2022/02/06 22:03:14;;;;;;;;;;;;;;;20.84;25.09;94293.63;10438484;28;1971;-43
2022/02/06 22:08:30;;;;;;;;;;;;;;;20.81;24.64;94286.31;10456411;28;1785;-50
2022/02/06 22:24:25;;;;;;;;;;;;;;;20.81;25.07;94249.47;10433911;28;1914;-43
2022/02/06 22:29:27;;;;;;;;;;;;;;;20.80;24.87;94273.47;10435110;28;1830;-45
2022/02/06 22:34:30;;;;;;;;;;;;;;;20.78;24.62;94238.78;10432678;28;1901;-43
2022/02/06 22:39:30;;;;;;;;;;;;;;;20.79;24.82;94214.00;10442843;28;1906;-45
2022/02/06 22:44:31;;;;;;;;;;;;;;;20.79;24.61;94233.19;10455240;28;1823;-42
2022/02/06 22:49:31;;;;;;;;;;;;;;;20.78;24.77;94207.19;10456366;28;1858;-47
2022/02/06 22:54:33;;;;;;;;;;;;;;;20.78;24.68;94223.75;10457727;28;1834;-45
2022/02/06 22:59:33;;;;;;;;;;;;;;;20.79;24.73;94241.09;10445569;28;1914;-46
2022/02/06 23:04:34;;;;;;;;;;;;;;;20.80;24.99;94233.97;10457584;28;1798;-45
2022/02/06 23:09:40;;;;;;;;;;;;;;;20.79;24.87;94193.69;10439567;28;1871;-45
2022/02/06 23:14:43;;;;;;;;;;;;;;;20.79;24.94;94235.81;10455482;28;1857;-43
2022/02/06 23:19:43;;;;;;;;;;;;;;;20.81;25.04;94222.38;10440384;28;1935;-41
2022/02/06 23:24:43;;;;;;;;;;;;;;;20.82;25.09;94211.50;10441453;28;1876;-42
2022/02/06 23:29:44;;;;;;;;;;;;;;;20.81;25.02;94227.63;10441522;28;1837;-42
2022/02/06 23:34:45;;;;;;;;;;;;;;;20.82;25.14;94213.38;10455078;28;1800;-43
2022/02/06 23:39:49;;;;;;;;;;;;;;;20.81;25.03;94207.31;10441749;28;1898;-42
2022/02/06 23:44:49;;;;;;;;;;;;;;;20.82;24.99;94226.53;10436879;28;1897;-46
2022/02/06 23:49:53;;;;;;;;;;;;;;;20.80;24.82;94208.41;10439957;28;1863;-43
